Stream Gauges

 

John Redmond Lake



    
SHEF ID:       JRLK1     John Redmond Lake
STATION TYPE:  RESERVOIR
Normal Pool:  Bottom =  1026.00, Top =  1041.00

               PRECIP ELEVATION   STORAGE    INFLOW   RELEASE  AIR-TEMP  WIND-DIRWIND-SPEED REL-HUMID SOLAR-RAD   VOLTAGE  BAT-LOAD
                   in        ft     ac-ft       cfs       cfs         F       deg       mph         %      W/m2      volt      volt
              Ccp-Rev   Ccp-Rev   Ccp-Rev  Regi-Rev  Regi-Rev   Ccp-Rev   Ccp-Rev   Ccp-Rev   Ccp-Rev   Ccp-Rev   Ccp-Rev   Ccp-Rev
(US/Central)
11/19 00:00      0.00   1041.87     75526       685       856     32.77    184.90      3.60     85.94      0.00     12.54     12.28
11/19 01:00      0.00   1041.86     75432       704       856     32.14    209.50      5.80     86.08      0.00     12.52     12.25
11/19 02:00      0.00   1041.87     75526       551       856     31.01    210.40      5.40     87.41      0.00     12.50     12.24
11/19 03:00      0.00   1041.86     75432       456       856     29.10    204.00      5.40     92.03      0.00     12.50     12.23
11/19 04:00      0.00   1041.85     75337       627       856     27.34    168.90      3.60     94.85      0.00     12.49     12.21
11/19 05:00      0.00   1041.85     75337       398       855     26.35    167.70      4.50     94.73      0.00     12.49     12.22
11/19 06:00      0.00   1041.85     75337       474       855     26.15    158.50      3.90     94.38      0.00     12.49     12.22
11/19 07:00      0.00   1041.85     75337       550       855     25.21    145.80      5.90     95.30      0.00     12.49     12.21
11/19 08:00      0.00   1041.84     75243       626       855     25.79    147.10      5.80     93.79     45.90     12.53     12.23
11/19 09:00      0.00   1041.86     75432       626       855     30.16    175.50      6.00     87.87    241.20     13.06     12.47
11/19 10:00      0.00   1041.84     75243       626       855     34.07    244.00     10.90     83.14    412.10     13.54     13.08
11/19 11:00      0.00   1041.84     75243       645       855     36.86    245.90      9.20     79.86    554.40     14.23     13.29
11/19 12:00      0.00   1041.84     75243       550       855     40.39    281.50      7.10     75.05    637.40     13.49     13.19
11/19 13:00      0.00   1041.84     75243       568       855     41.05    313.10     11.50     74.24    591.40     13.46     13.14
11/19 14:00      0.00   1041.83     75148       284       855     42.21    302.00      7.20     68.59    520.50     13.41     12.82
11/19 15:00      0.00   1041.86     75432      -901      -901     44.15    325.90     12.60     61.30    370.30     13.51     13.06
11/19 16:00      ----      ----      ----      -901      -901      ----      ----      ----      ----      ----      ----      ----
11/19 17:00      ----      ----      ----      ----      ----      ----      ----      ----      ----      ----      ----      ----
11/19 18:00      ----      ----      ----      ----      ----      ----      ----      ----      ----      ----      ----      ----
11/19 19:00      ----      ----      ----      ----      ----      ----      ----      ----      ----      ----      ----      ----
11/19 20:00      ----      ----      ----      ----      ----      ----      ----      ----      ----      ----      ----      ----
11/19 21:00      ----      ----      ----      ----      ----      ----      ----      ----      ----      ----      ----      ----
11/19 22:00      ----      ----      ----      ----      ----      ----      ----      ----      ----      ----      ----      ----
11/19 23:00      ----      ----      ----      ----      ----      ----      ----      ----      ----      ----      ----      ----

    

 

Burlington



    
SHEF ID:       BRLK1     Neosho River, Burlington, KS
STATION TYPE:  

               PRECIP     STAGE  RIV-FLOW  BAT-LOAD
                   in        ft       cfs      volt
              Ccp-Rev   Ccp-Rev   Ccp-Rev   Ccp-Rev
(US/Central)
11/19 00:00      0.00      7.58       851     12.60
11/19 01:00      0.00      7.57       844     12.60
11/19 02:00      0.00      7.57       844     12.60
11/19 03:00      0.00      7.59       857     12.54
11/19 04:00      0.00      7.58       851     12.54
11/19 05:00      0.00      7.59       857     12.54
11/19 06:00      0.00      7.59       857     12.54
11/19 07:00      0.00      7.59       857     12.30
11/19 08:00      0.00      7.58       851     12.48
11/19 09:00      0.00      7.58       851     13.00
11/19 10:00      0.00      7.57       844     13.53
11/19 11:00      0.00      ----      ----      ----
11/19 12:00      0.00      7.56       838      ----
11/19 13:00      0.00      7.56       838     13.53
11/19 14:00      0.00      7.54       825     13.59
11/19 15:00      0.00      7.55       831     13.48
11/19 16:00      0.00      7.54       825     13.36
11/19 17:00      ----      ----      ----      ----
11/19 18:00      ----      ----      ----      ----
11/19 19:00      ----      ----      ----      ----
11/19 20:00      ----      ----      ----      ----
11/19 21:00      ----      ----      ----      ----
11/19 22:00      ----      ----      ----      ----
11/19 23:00      ----      ----      ----      ----

    

 

Iola



    
SHEF ID:       IOLK1     NEOSHO RIVER NEAR IOLA
STATION TYPE:  

               PRECIP     STAGE  RIV-FLOW  AIR-TEMP  BAT-LOAD
                   in        ft       cfs         F      volt
              Ccp-Rev   Ccp-Rev   Ccp-Rev   Ccp-Rev   Ccp-Rev
(US/Central)
11/19 00:00      0.00      7.58       880     31.90     12.41
11/19 01:00      0.00      7.58       880     31.79     12.41
11/19 02:00      0.00      7.57       864     31.64     12.41
11/19 03:00      0.00      7.57       864     31.62     12.41
11/19 04:00      0.00      7.57       864     30.41     12.41
11/19 05:00      0.00      7.57       864     28.53     12.41
11/19 06:00      0.00      7.57       864     27.56     12.41
11/19 07:00      0.00      7.57       864     26.57     12.33
11/19 08:00      0.00      7.57       864     28.92     12.57
11/19 09:00      0.00      7.57       864     32.52     13.29
11/19 10:00      0.00      7.57       864     38.38     13.76
11/19 11:00      ----      ----      ----      ----      ----
11/19 12:00      ----      7.57       864     43.42      ----
11/19 13:00      0.00      7.57       864     47.23     13.92
11/19 14:00      0.00      7.57       864     50.76     14.00
11/19 15:00      0.00      7.57       864     50.07     14.00
11/19 16:00      ----      ----      ----      ----      ----
11/19 17:00      ----      ----      ----      ----      ----
11/19 18:00      ----      ----      ----      ----      ----
11/19 19:00      ----      ----      ----      ----      ----
11/19 20:00      ----      ----      ----      ----      ----
11/19 21:00      ----      ----      ----      ----      ----
11/19 22:00      ----      ----      ----      ----      ----
11/19 23:00      ----      ----      ----      ----      ----

    

 

Chanute



    
SHEF ID:       CNUK1     NEOSHO R NR CHANUTE, KS
STATION TYPE:  

               PRECIP     STAGE  RIV-FLOW   VOLTAGE  BAT-LOAD
                   in        ft       cfs      volt      volt
              Ccp-Rev   Ccp-Rev   Ccp-Rev   Ccp-Rev   Ccp-Rev
(US/Central)
11/19 00:00      0.00      9.01      1000     12.57     12.41
11/19 01:00      0.00      9.01      1000     12.57     12.41
11/19 02:00      0.00      9.01      1000     12.57     12.41
11/19 03:00      0.00      9.01      1000     12.57     12.41
11/19 04:00      0.00      9.01      1000     12.57     12.41
11/19 05:00      0.00      9.01      1000     12.57     12.41
11/19 06:00      0.00      9.01      1000     12.49     12.41
11/19 07:00      0.00      9.01      1000     12.57     12.41
11/19 08:00      0.00      9.01      1000     12.57     12.41
11/19 09:00      0.00      9.01      1000     12.81     12.41
11/19 10:00      0.00      9.00       990     13.05     12.73
11/19 11:00      ----      ----      ----      ----      ----
11/19 12:00      ----      8.96       950      ----      ----
11/19 13:00      0.00      8.98       970     14.24     13.60
11/19 14:00      0.00      8.97       960     14.08     13.76
11/19 15:00      0.00      8.98       970     14.08     13.68
11/19 16:00      ----      ----      ----      ----      ----
11/19 17:00      ----      ----      ----      ----      ----
11/19 18:00      ----      ----      ----      ----      ----
11/19 19:00      ----      ----      ----      ----      ----
11/19 20:00      ----      ----      ----      ----      ----
11/19 21:00      ----      ----      ----      ----      ----
11/19 22:00      ----      ----      ----      ----      ----
11/19 23:00      ----      ----      ----      ----      ----

    

 

Parsons



    
SHEF ID:       PPFK1     NEOSHO RIVER NEAR PARSONS 8E
STATION TYPE:  

               PRECIP     STAGE  RIV-FLOW ELEVATION  BAT-LOAD
                   in        ft       cfs        ft      volt
              Ccp-Rev   Ccp-Rev   Ccp-Rev   Ccp-Rev   Ccp-Rev
(US/Central)
11/19 00:00      0.00      8.60      1335      ----     12.65
11/19 01:00      0.00      8.58      1312      ----     12.65
11/19 02:00      0.00      8.56      1289      ----     12.65
11/19 03:00      0.00      8.55      1277      ----     12.65
11/19 04:00      0.00      8.54      1266      ----     12.65
11/19 05:00      0.00      8.53      1254      ----     12.65
11/19 06:00      0.00      8.52      1243      ----     12.65
11/19 07:00      0.00      8.50      1220      ----     12.65
11/19 08:00      0.00      8.49      1209      ----     12.65
11/19 09:00      0.00      8.49      1209      ----     13.36
11/19 10:00      0.00      8.48      1198      ----     13.59
11/19 11:00      ----      8.47      1186      ----      ----
11/19 12:00      ----      8.46      1175      ----      ----
11/19 13:00      0.00      8.45      1164      ----     14.35
11/19 14:00      0.00      8.45      1164      ----     14.35
11/19 15:00      0.00      8.44      1153      ----     14.18
11/19 16:00      ----      ----      ----      ----      ----
11/19 17:00      ----      ----      ----      ----      ----
11/19 18:00      ----      ----      ----      ----      ----
11/19 19:00      ----      ----      ----      ----      ----
11/19 20:00      ----      ----      ----      ----      ----
11/19 21:00      ----      ----      ----      ----      ----
11/19 22:00      ----      ----      ----      ----      ----
11/19 23:00      ----      ----      ----      ----      ----

    

 

Oswego



    
SHEF ID:       OSOK1     Oswego hwy 160
STATION TYPE:  

               PRECIP     STAGE  RIV-FLOW   VOLTAGE  BAT-LOAD
                   in        ft       cfs      volt      volt
              Ccp-Rev   Ccp-Rev   Ccp-Rev   Ccp-Rev   Ccp-Rev
(US/Central)
11/19 00:00      0.00     10.84      1498     12.49     12.33
11/19 01:00      0.00     10.82      1483     12.49     12.33
11/19 02:00      0.00     10.77      1446     12.49     12.33
11/19 03:00      0.00     10.74      1425     12.49     12.33
11/19 04:00      0.00     10.71      1404     12.49     12.33
11/19 05:00      0.00     10.65      1362     12.49     12.33
11/19 06:00      0.00     10.63      1348     12.49     12.33
11/19 07:00      0.00     10.63      1348     12.49     12.33
11/19 08:00      0.00     10.61      1335     12.81     12.41
11/19 09:00      0.00     10.54      1288     13.21     12.97
11/19 10:00      0.00     10.52      1275     13.53     13.21
11/19 11:00      0.00     10.51      1269      ----      ----
11/19 12:00      0.00     10.48      1249     13.68     13.37
11/19 13:00      0.00     10.45      1230     13.44     13.44
11/19 14:00      0.00     10.44      1224     13.68     13.37
11/19 15:00      0.00     10.42      1211     13.44     13.29
11/19 16:00      ----      ----      ----      ----      ----
11/19 17:00      ----      ----      ----      ----      ----
11/19 18:00      ----      ----      ----      ----      ----
11/19 19:00      ----      ----      ----      ----      ----
11/19 20:00      ----      ----      ----      ----      ----
11/19 21:00      ----      ----      ----      ----      ----
11/19 22:00      ----      ----      ----      ----      ----
11/19 23:00      ----      ----      ----      ----      ----

    

 

Commerce



    
SHEF ID:       COMO2     Neosho River nr Commerce, OK
STATION TYPE:  

               PRECIP     STAGE  STAGE(2)  RIV-FLOW  BAT-LOAD
                   in        ft        ft       cfs      volt
              Ccp-Rev   Ccp-Rev   Ccp-Rev   Ccp-Rev   Ccp-Rev
(US/Central)
11/19 00:00      0.00      4.15      4.11      2319     12.41
11/19 01:00      0.00      4.13      4.10      2286     12.41
11/19 02:00      0.00      4.11      4.08      2253     12.41
11/19 03:00      0.00      4.08      4.05      2204     12.41
11/19 04:00      0.00      4.05      4.03      2156     12.41
11/19 05:00      0.00      4.03      4.00      2123     12.41
11/19 06:00      0.00      4.00      3.98      2075     12.41
11/19 07:00      0.00      3.98      3.95      2042     12.41
11/19 08:00      0.00      3.96      3.93      2010     12.41
11/19 09:00      0.00      3.93      3.90      1962     13.05
11/19 10:00      0.00      3.91      3.89      1930     14.00
11/19 11:00      ----      ----      ----      ----      ----
11/19 12:00      ----      3.83      3.85      1802      ----
11/19 13:00      ----      3.82      3.82      1786     13.60
11/19 14:00      0.00      3.80      3.81      1755     13.37
11/19 15:00      0.00      3.80      3.78      1755     13.21
11/19 16:00      ----      ----      ----      ----      ----
11/19 17:00      ----      ----      ----      ----      ----
11/19 18:00      ----      ----      ----      ----      ----
11/19 19:00      ----      ----      ----      ----      ----
11/19 20:00      ----      ----      ----      ----      ----
11/19 21:00      ----      ----      ----      ----      ----
11/19 22:00      ----      ----      ----      ----      ----
11/19 23:00      ----      ----      ----      ----      ----

    

 

Spring River , Quapaw



    
SHEF ID:       QUAO2     Spring River near Quapaw, OK
STATION TYPE:  

               PRECIP     STAGE  STAGE(2)  RIV-FLOW  BAT-LOAD
                   in        ft        ft       cfs      volt
              Ccp-Rev   Ccp-Rev   Ccp-Rev   Ccp-Rev   Ccp-Rev
(US/Central)
11/19 00:00      0.00      6.06      6.10       416     12.33
11/19 01:00      0.00      6.06      6.10       416     12.33
11/19 02:00      0.00      6.06      6.10       416     12.33
11/19 03:00      0.00      6.06      6.10       416     12.33
11/19 04:00      0.00      6.06      6.10       416     12.33
11/19 05:00      0.00      6.06      6.10       416     12.33
11/19 06:00      0.00      6.06      6.10       416     12.33
11/19 07:00      0.00      6.06      6.10       416     12.33
11/19 08:00      0.00      6.07      6.10       421     12.33
11/19 09:00      0.00      6.07      6.10       421     12.41
11/19 10:00      0.00      6.07      6.06       421     13.29
11/19 11:00      0.00      6.07      6.01       421     13.44
11/19 12:00      0.00      6.07      6.02       421      ----
11/19 13:00      0.00      6.07      6.05       421     13.53
11/19 14:00      0.00      6.06      6.06       416     13.44
11/19 15:00      0.00      6.06      6.09       416     13.53
11/19 16:00      0.00      6.05      6.09       412     13.53
11/19 17:00      ----      ----      ----      ----      ----
11/19 18:00      ----      ----      ----      ----      ----
11/19 19:00      ----      ----      ----      ----      ----
11/19 20:00      ----      ----      ----      ----      ----
11/19 21:00      ----      ----      ----      ----      ----
11/19 22:00      ----      ----      ----      ----      ----
11/19 23:00      ----      ----      ----      ----      ----

    

 

Elk River, Tiff City



    
SHEF ID:       TIFM7     Elk River near Tiff City, Mo
STATION TYPE:  

               PRECIP     STAGE  STAGE(2)  RIV-FLOW   VOLTAGE
                   in        ft        ft       cfs      volt
              Ccp-Rev   Ccp-Rev   Ccp-Rev   Ccp-Rev   Ccp-Rev
(US/Central)
11/19 00:00      0.00      2.88      2.89       153     12.70
11/19 01:00      0.00      2.88      2.90       153     12.70
11/19 02:00      0.00      2.89      2.89       155     12.70
11/19 03:00      0.00      2.88      2.89       153     12.70
11/19 04:00      0.00      2.88      2.89       153     12.70
11/19 05:00      0.00      2.88      2.87       153     12.70
11/19 06:00      0.00      2.88      2.89       153     12.70
11/19 07:00      0.00      2.88      2.89       153     12.70
11/19 08:00      0.00      2.88      2.89       153     12.70
11/19 09:00      0.00      2.88      2.90       153     13.00
11/19 10:00      0.00      2.88      2.89       153     13.80
11/19 11:00      ----      ----      ----      ----      ----
11/19 12:00      ----      2.88      2.88       153      ----
11/19 13:00      0.00      2.88      2.88       153     14.30
11/19 14:00      0.00      2.88      2.88       153     14.60
11/19 15:00      0.00      2.88      2.84       153     13.30
11/19 16:00      ----      ----      ----      ----      ----
11/19 17:00      ----      ----      ----      ----      ----
11/19 18:00      ----      ----      ----      ----      ----
11/19 19:00      ----      ----      ----      ----      ----
11/19 20:00      ----      ----      ----      ----      ----
11/19 21:00      ----      ----      ----      ----      ----
11/19 22:00      ----      ----      ----      ----      ----
11/19 23:00      ----      ----      ----      ----      ----

    

 

Grand Lake, Pensacola Dam



    
SHEF ID:       PENO2     Pensacola (Grand Lake)
STATION TYPE:  RESERVOIR

               PRECIP ELEVATION   STORAGE    INFLOW   RELEASE  AIR-TEMP  WIND-DIRWIND-SPEED REL-HUMID SOLAR-RAD   VOLTAGE  BAT-LOAD
                   in        ft     ac-ft       cfs       cfs         F       deg       mph         %      W/m2      volt      volt
              Ccp-Rev   Ccp-Rev   Ccp-Rev  Regi-Rev  Regi-Rev   Ccp-Rev   Ccp-Rev   Ccp-Rev   Ccp-Rev   Ccp-Rev   Ccp-Rev   Ccp-Rev
(US/Central)
11/19 00:00      0.00    741.99   1392304       380         0     33.55    256.99      3.23     95.15      0.00     12.77     12.57
11/19 01:00      0.00    741.95   1390720      -901      -901     33.75    245.87      2.06     92.23      0.00     12.75     12.57
11/19 02:00      0.00    741.98   1391908      -901      -901     34.05    230.84      1.21     89.22      0.00     12.74     12.57
11/19 03:00      0.00    741.99   1392304      -901      -901     34.11    221.67      1.55     89.21      0.00     12.72     12.57
11/19 04:00      0.00    741.98   1391908      -901      -901     34.12    248.17      1.94     88.03      0.00     12.70     12.49
11/19 05:00      0.00    742.00   1392700      -901      -901     34.34    238.94      1.56     85.59      0.00     12.68     12.49
11/19 06:00      0.00    741.97   1391512      -901      -901     34.41    240.12      1.39     86.61      0.00     12.66     12.49
11/19 07:00      0.00    741.98   1391908      -901      -901     34.63    193.95      1.53     86.35      0.00     12.65     12.41
11/19 08:00      0.00    741.98   1391908      -901      -901     34.99    197.35      1.64     85.95      7.74     12.63     12.41
11/19 09:00      0.00    741.98   1391908      -901      -901     35.89    192.65      1.93     83.17     93.68     12.63     12.41
11/19 10:00      0.00    741.94   1390324      -901      -901     37.85    206.70      2.42     77.80    310.18     12.62     12.41
11/19 11:00      ----      ----      ----      -901      -901      ----      ----      ----      ----      ----      ----      ----
11/19 12:00      ----    742.01   1393103      -901      -901     43.30    211.00      3.00     65.82    530.01     12.62      ----
11/19 13:00      0.00    741.96   1391116      -901      -901     45.43    205.91      4.16     60.89    530.11     12.63     12.41
11/19 14:00      0.00    741.93   1389928      -901      -901     47.39    209.25      3.95     56.47    473.96     12.63     12.41
11/19 15:00      0.00    741.97   1391512      -901      -901     49.24    212.49      4.09     52.71    362.82     12.63     12.41
11/19 16:00      0.00    741.97   1391512      -901      -901     50.22    219.46      3.65     49.93    219.24     12.63     12.41
11/19 17:00      ----      ----      ----      ----      ----      ----      ----      ----      ----      ----      ----      ----
11/19 18:00      ----      ----      ----      ----      ----      ----      ----      ----      ----      ----      ----      ----
11/19 19:00      ----      ----      ----      ----      ----      ----      ----      ----      ----      ----      ----      ----
11/19 20:00      ----      ----      ----      ----      ----      ----      ----      ----      ----      ----      ----      ----
11/19 21:00      ----      ----      ----      ----      ----      ----      ----      ----      ----      ----      ----      ----
11/19 22:00      ----      ----      ----      ----      ----      ----      ----      ----      ----      ----      ----      ----
11/19 23:00      ----      ----      ----      ----      ----      ----      ----      ----      ----      ----      ----      ----

    

 

Big Cabin Creek



    
SHEF ID:       BGCO2     Big Cabin Creek near Big Cabin,
STATION TYPE:  

               PRECIP     STAGE  STAGE(2)  RIV-FLOW  BAT-LOAD
                   in        ft        ft       cfs      volt
              Ccp-Rev   Ccp-Rev   Ccp-Rev   Ccp-Rev   Ccp-Rev
(US/Central)
11/19 00:00      0.00     12.34     12.35         9     12.41
11/19 01:00      0.00     12.34     12.35         9     12.49
11/19 02:00      0.00     12.34     12.35         9     12.49
11/19 03:00      0.00     12.34     12.35         9     12.49
11/19 04:00      0.00     12.34     12.35         9     12.49
11/19 05:00      0.00     12.34     12.35         9     12.41
11/19 06:00      0.00     12.34     12.35         9     12.41
11/19 07:00      0.00     12.34     12.35         9     12.41
11/19 08:00      0.00     12.34     12.35         9     12.41
11/19 09:00      0.00     12.34     12.35         9     12.57
11/19 10:00      0.00     12.35     12.34        10     12.97
11/19 11:00      ----      ----      ----      ----      ----
11/19 12:00      ----      ----      ----      ----      ----
11/19 13:00      ----     12.34     12.33         9     12.89
11/19 14:00      0.00     12.35     12.33        10     12.89
11/19 15:00      0.00     12.34     12.33         9     12.81
11/19 16:00      ----      ----      ----      ----     12.81
11/19 17:00      ----      ----      ----      ----      ----
11/19 18:00      ----      ----      ----      ----      ----
11/19 19:00      ----      ----      ----      ----      ----
11/19 20:00      ----      ----      ----      ----      ----
11/19 21:00      ----      ----      ----      ----      ----
11/19 22:00      ----      ----      ----      ----      ----
11/19 23:00      ----      ----      ----      ----      ----

    

 

Spavinaw Lake (Lower)




 

Hudson Lake



    
SHEF ID:       MFDO2     Lake Hudson
STATION TYPE:  RESERVOIR

               PRECIP ELEVATION   STORAGE   TW-ELEV    INFLOW   RELEASE  AIR-TEMP  WIND-DIRWIND-SPEED REL-HUMID SOLAR-RAD   VOLTAGE  BAT-LOAD
                   in        ft     ac-ft        ft       cfs       cfs         F       deg       mph         %      W/m2      volt      volt
              Ccp-Rev   Ccp-Rev   Ccp-Rev   Ccp-Rev  Regi-Rev  Regi-Rev   Ccp-Rev   Ccp-Rev   Ccp-Rev   Ccp-Rev   Ccp-Rev   Ccp-Rev   Ccp-Rev
(US/Central)
11/19 00:00      0.00    620.21    213692    561.58      2363         0     34.84    268.30      2.40     86.90      0.00     12.33     11.86
11/19 01:00      0.00    620.07    212097    561.28      -901      -901     34.90    246.40      1.30     86.08      0.00     12.33     11.86
11/19 02:00      0.00    620.00    211300    561.04      -901      -901     35.02    269.50      0.80     85.58      0.00     12.32     11.86
11/19 03:00      0.00    620.02    211528    560.84      -901      -901     34.86    272.80      0.80     84.46      0.00     12.32     11.86
11/19 04:00      0.00    620.00    211300    560.68      -901      -901     34.75    268.30      1.30     82.79      0.00     12.32     11.86
11/19 05:00      0.00    619.88    209967    560.54      -901      -901     35.31    252.50      0.60     82.31      0.00     12.32     11.86
11/19 06:00      0.00    619.68    207745    566.72      -901      -901     35.37    223.50      1.00     83.72      0.00     12.32     11.77
11/19 07:00      0.00    619.57    206523    569.49      -901      -901     35.55    234.90      0.40     82.53      0.00     12.32     11.77
11/19 08:00      0.00    619.80    209078    564.77      -901      -901     35.69    228.40      0.50     83.13      6.50     12.33     11.77
11/19 09:00      0.00    619.88    209967    563.23      -901      -901     36.66    256.00      0.60     79.66     91.20     12.60     11.86
11/19 10:00      0.00    619.96    210856    562.45      -901      -901     38.89    292.50      1.00     71.80    321.90     12.94     12.09
11/19 11:00      0.00    619.95    210744    561.93      -901      -901     41.31    331.50      1.00     67.21    452.20     12.99     12.41
11/19 12:00      0.00    620.11    212553    561.55      -901      -901     43.79    346.60      1.80     63.13    506.50      ----      ----
11/19 13:00      0.00    620.06    211983    561.26      -901      -901     46.08    294.20      2.30     58.33    508.80     12.87     12.41
11/19 14:00      0.00    619.98    211078    561.03      -901      -901     47.53    287.90      2.20     56.37    386.10     12.70     12.41
11/19 15:00      0.00    620.02    211528    560.83      -901      -901     48.70    281.00      2.10     53.91     13.30     12.65     12.17
11/19 16:00      0.00    620.05    211869    560.70      -901      -901     49.64    261.60      2.20     51.75      5.80     12.61     12.17
11/19 17:00      ----      ----      ----      ----      ----      ----      ----      ----      ----      ----      ----      ----      ----
11/19 18:00      ----      ----      ----      ----      ----      ----      ----      ----      ----      ----      ----      ----      ----
11/19 19:00      ----      ----      ----      ----      ----      ----      ----      ----      ----      ----      ----      ----      ----
11/19 20:00      ----      ----      ----      ----      ----      ----      ----      ----      ----      ----      ----      ----      ----
11/19 21:00      ----      ----      ----      ----      ----      ----      ----      ----      ----      ----      ----      ----      ----
11/19 22:00      ----      ----      ----      ----      ----      ----      ----      ----      ----      ----      ----      ----      ----
11/19 23:00      ----      ----      ----      ----      ----      ----      ----      ----      ----      ----      ----      ----      ----